createdAt,value
2023-04-01T00:01:01.337Z,9.70
2023-04-01T00:03:30.461Z,9.70
2023-04-01T00:05:59.951Z,9.70
2023-04-01T00:08:30.794Z,9.70
2023-04-01T00:10:58.558Z,9.70
2023-04-01T00:13:27.399Z,9.70
2023-04-01T00:15:57.363Z,9.60
2023-04-01T00:18:28.589Z,9.60
2023-04-01T00:20:56.161Z,9.60
2023-04-01T00:23:23.715Z,9.60
2023-04-01T00:25:51.605Z,9.60
2023-04-01T00:28:20.529Z,9.50
2023-04-01T00:30:48.453Z,9.50
2023-04-01T00:33:17.558Z,9.50
2023-04-01T00:35:45.741Z,9.50
2023-04-01T00:38:13.648Z,9.50
2023-04-01T00:40:43.494Z,9.50
2023-04-01T00:43:19.350Z,9.50
2023-04-01T00:45:49.322Z,9.40
2023-04-01T00:48:21.850Z,9.40
2023-04-01T00:50:54.618Z,9.40
2023-04-01T00:53:23.659Z,9.40
2023-04-01T00:55:59.652Z,9.40
2023-04-01T00:58:33.926Z,9.40
2023-04-01T01:01:02.393Z,9.30
2023-04-01T01:03:30.369Z,9.30
2023-04-01T01:06:23.045Z,9.30
2023-04-01T01:09:35.254Z,9.30
2023-04-01T01:12:19.947Z,9.30
2023-04-01T01:15:01.557Z,9.30
2023-04-01T01:17:57.191Z,9.30
2023-04-01T01:20:30.762Z,9.30
2023-04-01T01:23:07.091Z,9.20
2023-04-01T01:26:05.770Z,9.30
2023-04-01T01:28:45.647Z,9.20
2023-04-01T01:31:43.413Z,9.20
2023-04-01T01:34:20.360Z,9.20
2023-04-01T01:36:53.697Z,9.20
2023-04-01T01:39:28.861Z,9.20
2023-04-01T01:42:03.681Z,9.10
2023-04-01T01:44:33.476Z,9.10
2023-04-01T01:47:01.686Z,9.10
2023-04-01T01:49:32.823Z,9.00
2023-04-01T01:52:00.907Z,9.10
2023-04-01T01:54:28.507Z,9.00
2023-04-01T01:57:10.817Z,9.00
2023-04-01T01:59:45.469Z,9.00
2023-04-01T02:02:19.440Z,9.00
2023-04-01T02:04:48.423Z,9.00
2023-04-01T02:07:28.538Z,8.90
2023-04-01T02:09:59.071Z,8.90
2023-04-01T02:12:28.404Z,8.90
2023-04-01T02:15:06.780Z,8.90
2023-04-01T02:17:37.024Z,8.90
2023-04-01T02:20:14.626Z,8.90
2023-04-01T02:22:57.092Z,8.90
2023-04-01T02:25:28.967Z,8.90
2023-04-01T02:27:58.822Z,8.80
2023-04-01T02:30:28.514Z,8.80
2023-04-01T02:32:59.123Z,8.80
2023-04-01T02:35:27.497Z,8.70
2023-04-01T02:37:56.596Z,8.80
2023-04-01T02:40:25.653Z,8.70
2023-04-01T02:42:53.443Z,8.70
2023-04-01T02:45:21.120Z,8.70
2023-04-01T02:47:48.812Z,8.70
2023-04-01T02:50:16.691Z,8.60
2023-04-01T02:52:44.275Z,8.70
2023-04-01T02:55:11.989Z,8.60
2023-04-01T02:57:39.586Z,8.60
2023-04-01T03:00:12.120Z,8.60
2023-04-01T03:02:40.537Z,8.60
2023-04-01T03:05:08.591Z,8.60
2023-04-01T03:07:36.140Z,8.50
2023-04-01T03:10:03.935Z,8.50
2023-04-01T03:14:59.728Z,8.50
2023-04-01T03:17:41.190Z,8.50
2023-04-01T03:20:11.676Z,8.50
2023-04-01T03:22:42.626Z,8.40
2023-04-01T03:25:11.592Z,8.40
2023-04-01T03:27:39.964Z,8.40
2023-04-01T03:30:10.609Z,8.30
2023-04-01T03:32:46.873Z,8.20
2023-04-01T03:35:14.616Z,8.20
2023-04-01T03:37:43.718Z,8.10
2023-04-01T03:40:11.822Z,8.00
2023-04-01T03:42:39.445Z,8.00
2023-04-01T03:45:07.651Z,7.90
2023-04-01T03:47:35.512Z,7.90
2023-04-01T03:50:03.535Z,7.80
2023-04-01T03:52:31.276Z,7.70
2023-04-01T03:54:58.987Z,7.50
2023-04-01T03:57:27.448Z,7.50
2023-04-01T03:59:58.224Z,7.30
2023-04-01T04:02:26.119Z,7.40
2023-04-01T04:04:53.920Z,7.40
2023-04-01T04:07:22.006Z,7.40
2023-04-01T04:10:06.462Z,7.30
2023-04-01T04:12:34.140Z,7.30
2023-04-01T04:15:01.715Z,7.30
2023-04-01T04:17:29.324Z,7.30
2023-04-01T04:22:25.897Z,7.30
2023-04-01T04:24:55.864Z,7.30
2023-04-01T04:27:23.391Z,7.40
2023-04-01T04:30:05.114Z,7.40
2023-04-01T04:32:33.211Z,7.40
2023-04-01T04:35:01.104Z,7.40
2023-04-01T04:37:28.796Z,7.50
2023-04-01T04:39:56.719Z,7.50
2023-04-01T04:42:24.389Z,7.50
2023-04-01T04:44:59.333Z,7.50
2023-04-01T04:47:27.354Z,10.10
2023-04-01T04:49:55.043Z,7.60
2023-04-01T04:52:22.832Z,7.60
2023-04-01T04:54:50.499Z,7.60
2023-04-01T04:57:18.083Z,7.60
2023-04-01T04:59:53.154Z,7.60
2023-04-01T05:02:32.020Z,7.70
2023-04-01T05:04:59.703Z,7.70
2023-04-01T05:07:30.023Z,7.70
2023-04-01T05:09:57.868Z,7.70
2023-04-01T05:12:25.958Z,7.70
2023-04-01T05:15:06.457Z,7.80
2023-04-01T05:20:05.135Z,7.80
2023-04-01T05:22:32.796Z,7.80
2023-04-01T05:25:00.471Z,7.80
2023-04-01T05:27:29.449Z,7.80
2023-04-01T05:29:57.930Z,7.80
2023-04-01T05:33:00.967Z,7.80
2023-04-01T05:35:29.576Z,7.80
2023-04-01T05:37:57.358Z,7.90
2023-04-01T05:40:27.031Z,7.80
2023-04-01T05:42:57.604Z,7.90
2023-04-01T05:45:25.565Z,7.80
2023-04-01T05:48:11.489Z,7.90
2023-04-01T05:50:42.597Z,7.90
2023-04-01T05:53:11.941Z,7.90
2023-04-01T05:55:43.038Z,7.90
2023-04-01T05:58:10.942Z,7.90
2023-04-01T06:00:41.020Z,8.00
2023-04-01T06:03:09.911Z,8.00
2023-04-01T06:05:42.128Z,8.00
2023-04-01T06:08:19.640Z,8.00
2023-04-01T06:11:17.101Z,8.00
2023-04-01T06:14:07.032Z,8.00
2023-04-01T06:17:27.984Z,8.00
2023-04-01T06:20:30.904Z,8.00
2023-04-01T06:23:28.409Z,8.10
2023-04-01T06:26:10.324Z,8.00
2023-04-01T06:28:57.575Z,8.00
2023-04-01T06:32:03.015Z,8.00
2023-04-01T06:34:43.936Z,8.10
2023-04-01T06:37:20.417Z,8.10
2023-04-01T06:39:51.433Z,8.10
2023-04-01T06:42:40.331Z,8.10
2023-04-01T06:45:27.217Z,8.00
2023-04-01T06:48:36.465Z,8.00
2023-04-01T06:51:35.078Z,8.00
2023-04-01T06:54:43.255Z,8.00
2023-04-01T06:57:52.335Z,8.00
2023-04-01T07:00:33.546Z,8.00
2023-04-01T07:03:25.689Z,8.00
2023-04-01T07:05:54.935Z,8.00
2023-04-01T07:08:32.954Z,8.00
2023-04-01T07:11:05.688Z,8.00
2023-04-01T07:13:59.502Z,8.00
2023-04-01T07:16:30.616Z,8.00
2023-04-01T07:19:07.217Z,8.00
2023-04-01T07:22:15.559Z,8.00
2023-04-01T07:25:14.128Z,8.00
2023-04-01T07:27:43.828Z,8.00
2023-04-01T07:30:24.430Z,8.00
2023-04-01T07:33:17.859Z,8.00
2023-04-01T07:36:01.964Z,8.00
2023-04-01T07:38:57.346Z,8.10
2023-04-01T07:41:47.820Z,8.10
2023-04-01T07:44:28.964Z,8.20
2023-04-01T07:47:02.359Z,8.20
2023-04-01T07:49:51.156Z,8.30
2023-04-01T07:52:27.797Z,8.30
2023-04-01T07:55:17.604Z,8.40
2023-04-01T07:58:10.852Z,8.40
2023-04-01T08:00:52.243Z,8.40
2023-04-01T08:03:39.761Z,8.40
2023-04-01T08:06:36.837Z,8.40
2023-04-01T08:09:27.199Z,8.40
2023-04-01T08:12:31.419Z,8.50
2023-04-01T08:15:10.766Z,9.50
2023-04-01T08:18:05.902Z,8.50
2023-04-01T08:20:51.684Z,8.50
2023-04-01T08:23:37.956Z,8.60
2023-04-01T08:26:31.710Z,8.70
2023-04-01T08:29:12.909Z,8.80
2023-04-01T08:32:02.342Z,8.80
2023-04-01T08:34:37.623Z,8.90
2023-04-01T08:37:15.292Z,8.90
2023-04-01T08:39:52.041Z,8.90
2023-04-01T08:42:23.193Z,8.90
2023-04-01T08:45:22.645Z,9.00
2023-04-01T08:48:12.779Z,9.10
2023-04-01T08:50:59.745Z,9.20
2023-04-01T08:54:02.004Z,9.30
2023-04-01T08:56:41.378Z,9.40
2023-04-01T08:59:33.681Z,9.50
2023-04-01T09:02:32.477Z,9.50
2023-04-01T09:05:23.308Z,9.50
2023-04-01T09:08:03.736Z,9.50
2023-04-01T09:10:59.520Z,9.60
2023-04-01T09:14:29.283Z,9.70
2023-04-01T09:17:36.912Z,9.80
2023-04-01T09:20:24.716Z,9.80
2023-04-01T09:23:19.982Z,9.80
2023-04-01T09:26:08.074Z,9.80
2023-04-01T09:28:47.792Z,9.80
2023-04-01T09:32:01.064Z,9.80
2023-04-01T09:35:03.258Z,9.80
2023-04-01T09:38:06.860Z,9.80
2023-04-01T09:41:02.416Z,9.90
2023-04-01T09:44:00.023Z,10.10
2023-04-01T09:46:46.810Z,10.20
2023-04-01T09:49:37.027Z,10.20
2023-04-01T09:52:38.689Z,10.20
2023-04-01T09:55:39.714Z,10.30
2023-04-01T09:58:27.189Z,10.40
2023-04-01T10:01:35.916Z,10.60
2023-04-01T10:04:23.700Z,10.90
2023-04-01T10:07:28.296Z,10.90
2023-04-01T10:10:08.178Z,11.00
2023-04-01T10:13:03.971Z,11.20
2023-04-01T10:16:04.359Z,11.20
2023-04-01T10:18:32.086Z,11.20
2023-04-01T10:21:13.717Z,11.30
2023-04-01T10:24:20.154Z,11.30
2023-04-01T10:26:52.407Z,11.40
2023-04-01T10:29:54.142Z,11.40
2023-04-01T10:32:41.244Z,11.40
2023-04-01T10:35:40.591Z,11.30
2023-04-01T10:38:47.498Z,11.20
2023-04-01T10:41:18.058Z,11.20
2023-04-01T10:44:26.781Z,11.20
2023-04-01T10:46:58.146Z,11.60
2023-04-01T10:49:50.065Z,11.60
2023-04-01T10:52:51.595Z,11.80
2023-04-01T10:55:43.373Z,11.90
2023-04-01T10:58:54.982Z,11.80
2023-04-01T11:02:24.639Z,11.60
2023-04-01T11:05:22.702Z,11.50
2023-04-01T11:08:15.683Z,11.40
2023-04-01T11:11:02.055Z,11.40
2023-04-01T11:14:15.982Z,11.50
2023-04-01T11:17:07.911Z,11.60
2023-04-01T11:20:00.925Z,11.80
2023-04-01T11:22:36.502Z,11.80
2023-04-01T11:25:17.158Z,11.80
2023-04-01T11:28:15.736Z,11.80
2023-04-01T11:31:11.593Z,11.70
2023-04-01T11:33:51.459Z,11.80
2023-04-01T11:36:31.745Z,11.90
2023-04-01T11:39:24.802Z,11.90
2023-04-01T11:43:01.353Z,11.90
2023-04-01T11:46:06.297Z,11.90
2023-04-01T11:48:52.080Z,12.00
2023-04-01T11:51:34.882Z,12.20
2023-04-01T11:54:24.396Z,12.30
2023-04-01T11:57:28.908Z,12.40
2023-04-01T12:00:15.924Z,12.30
2023-04-01T12:03:10.427Z,12.30
2023-04-01T12:05:46.861Z,12.30
2023-04-01T12:08:40.266Z,12.60
2023-04-01T12:11:22.332Z,13.10
2023-04-01T12:13:56.147Z,13.30
2023-04-01T12:16:49.822Z,13.20
2023-04-01T12:19:48.427Z,13.10
2023-04-01T12:22:32.562Z,12.90
2023-04-01T12:25:03.779Z,12.40
2023-04-01T12:27:31.363Z,12.40
2023-04-01T12:30:09.281Z,12.20
2023-04-01T12:32:55.860Z,11.90
2023-04-01T12:35:44.676Z,11.90
2023-04-01T12:38:48.840Z,11.70
2023-04-01T12:41:38.238Z,11.60
2023-04-01T12:44:35.424Z,11.40
2023-04-01T12:47:06.525Z,11.40
2023-04-01T12:50:11.395Z,11.50
2023-04-01T12:52:47.917Z,11.50
2023-04-01T12:55:33.847Z,11.60
2023-04-01T12:58:04.739Z,11.60
2023-04-01T13:01:08.883Z,11.60
2023-04-01T13:03:51.550Z,11.60
2023-04-01T13:06:42.307Z,11.50
2023-04-01T13:09:31.247Z,11.50
2023-04-01T13:12:11.143Z,11.40
2023-04-01T13:14:44.464Z,11.40
2023-04-01T13:17:35.833Z,11.50
2023-04-01T13:20:30.025Z,11.50
2023-04-01T13:23:18.598Z,11.50
2023-04-01T13:25:46.635Z,11.50
2023-04-01T13:28:26.805Z,11.50
2023-04-01T13:31:10.215Z,11.50
2023-04-01T13:34:06.873Z,11.40
2023-04-01T13:36:54.486Z,11.40
2023-04-01T13:39:31.077Z,11.30
2023-04-01T13:42:25.926Z,11.20
2023-04-01T13:45:06.760Z,11.10
2023-04-01T13:47:53.194Z,11.00
2023-04-01T13:51:06.708Z,10.80
2023-04-01T13:54:00.817Z,10.80
2023-04-01T13:57:17.046Z,10.90
2023-04-01T14:00:18.139Z,10.90
2023-04-01T14:02:57.808Z,11.00
2023-04-01T14:05:49.801Z,11.20
2023-04-01T14:08:58.718Z,11.20
2023-04-01T14:11:48.067Z,11.40
2023-04-01T14:14:41.697Z,11.40
2023-04-01T14:17:30.832Z,11.40
2023-04-01T14:20:14.302Z,11.50
2023-04-01T14:23:02.133Z,11.50
2023-04-01T14:25:54.211Z,11.50
2023-04-01T14:28:39.699Z,11.60
2023-04-01T14:31:41.387Z,11.70
2023-04-01T14:34:29.869Z,11.80
2023-04-01T14:37:34.616Z,11.80
2023-04-01T14:40:25.773Z,11.80
2023-04-01T14:43:12.059Z,11.70
2023-04-01T14:46:01.413Z,11.70
2023-04-01T14:48:40.940Z,11.60
2023-04-01T14:51:20.424Z,11.60
2023-04-01T14:54:12.257Z,11.50
2023-04-01T14:56:49.243Z,11.50
2023-04-01T14:59:17.583Z,11.40
2023-04-01T15:02:09.919Z,11.30
2023-04-01T15:04:52.477Z,11.10
2023-04-01T15:07:44.237Z,11.10
2023-04-01T15:10:20.888Z,11.00
2023-04-01T15:13:26.504Z,10.90
2023-04-01T15:16:26.889Z,10.90
2023-04-01T15:19:21.707Z,10.90
2023-04-01T15:22:04.303Z,10.80
2023-04-01T15:24:55.172Z,10.90
2023-04-01T15:27:47.570Z,10.80
2023-04-01T15:30:30.905Z,10.80
2023-04-01T15:33:14.783Z,10.90
2023-04-01T15:35:53.402Z,10.80
2023-04-01T15:38:27.593Z,11.10
2023-04-01T15:41:00.119Z,10.80
2023-04-01T15:43:27.701Z,10.70
2023-04-01T15:46:20.705Z,10.70
2023-04-01T15:49:38.834Z,10.70
2023-04-01T15:52:35.108Z,10.70
2023-04-01T15:55:14.585Z,10.70
2023-04-01T15:57:54.789Z,10.60
2023-04-01T16:00:30.911Z,10.60
2023-04-01T16:03:21.435Z,10.60
2023-04-01T16:05:52.037Z,10.60
2023-04-01T16:08:41.371Z,10.60
2023-04-01T16:11:48.427Z,10.50
2023-04-01T16:14:42.696Z,10.50
2023-04-01T16:17:22.028Z,10.50
2023-04-01T16:19:52.388Z,10.50
2023-04-01T16:22:31.884Z,10.40
2023-04-01T16:25:17.971Z,10.40
2023-04-01T16:28:11.969Z,10.30
2023-04-01T16:30:41.682Z,10.30
2023-04-01T16:33:21.507Z,10.20
2023-04-01T16:36:02.149Z,10.20
2023-04-01T16:38:52.476Z,10.20
2023-04-01T16:41:33.339Z,10.20
2023-04-01T16:44:24.803Z,10.20
2023-04-01T16:46:57.951Z,10.20
2023-04-01T16:49:29.195Z,10.20
2023-04-01T16:52:12.427Z,10.30
2023-04-01T16:55:05.181Z,10.30
2023-04-01T16:57:47.480Z,10.30
2023-04-01T17:00:42.192Z,10.30
2023-04-01T17:03:32.112Z,10.20
2023-04-01T17:06:18.716Z,10.20
2023-04-01T17:09:04.654Z,10.20
2023-04-01T17:11:53.414Z,10.10
2023-04-01T17:14:26.322Z,10.10
2023-04-01T17:17:09.747Z,10.00
2023-04-01T17:19:43.541Z,10.00
2023-04-01T17:22:17.190Z,10.00
2023-04-01T17:24:44.734Z,9.90
2023-04-01T17:27:52.022Z,9.80
2023-04-01T17:30:47.111Z,9.70
2023-04-01T17:33:47.848Z,9.70
2023-04-01T17:36:21.536Z,9.70
2023-04-01T17:39:06.314Z,9.70
2023-04-01T17:41:48.062Z,9.60
2023-04-01T17:44:41.010Z,9.60
2023-04-01T17:47:36.361Z,9.60
2023-04-01T17:50:24.441Z,9.50
2023-04-01T17:53:04.297Z,9.50
2023-04-01T17:55:49.525Z,9.50
2023-04-01T17:58:41.628Z,9.50
2023-04-01T18:01:30.909Z,9.50
2023-04-01T18:04:23.313Z,9.40
2023-04-01T18:07:15.434Z,9.40
2023-04-01T18:10:20.388Z,9.40
2023-04-01T18:13:18.955Z,9.40
2023-04-01T18:16:01.382Z,9.40
2023-04-01T18:18:44.005Z,9.40
2023-04-01T18:21:26.681Z,9.40
2023-04-01T18:24:02.928Z,8.80
2023-04-01T18:26:42.175Z,9.30
2023-04-01T18:29:23.305Z,9.30
2023-04-01T18:32:15.032Z,9.30
2023-04-01T18:34:57.588Z,9.30
2023-04-01T18:37:57.010Z,9.20
2023-04-01T18:40:37.760Z,9.20
2023-04-01T18:43:43.313Z,9.20
2023-04-01T18:46:53.637Z,9.10
2023-04-01T18:49:53.216Z,9.10
2023-04-01T18:52:44.422Z,9.10
2023-04-01T18:55:30.436Z,9.00
2023-04-01T18:58:22.045Z,9.00
2023-04-01T19:01:02.824Z,9.00
2023-04-01T19:03:57.950Z,8.80
2023-04-01T19:06:57.923Z,8.90
2023-04-01T19:09:32.996Z,8.90
2023-04-01T19:12:00.717Z,8.90
2023-04-01T19:14:58.684Z,8.90
2023-04-01T19:17:47.512Z,8.90
2023-04-01T19:20:22.282Z,8.90
2023-04-01T19:23:08.259Z,8.90
2023-04-01T19:25:41.123Z,8.90
2023-04-01T19:28:53.136Z,8.90
2023-04-01T19:31:39.862Z,8.90
2023-04-01T19:34:35.349Z,8.80
2023-04-01T19:37:35.534Z,8.90
2023-04-01T19:40:15.770Z,8.80
2023-04-01T19:42:58.102Z,8.80
2023-04-01T19:45:37.886Z,8.80
2023-04-01T19:48:44.396Z,8.80
2023-04-01T19:51:28.226Z,8.80
2023-04-01T19:54:24.076Z,8.80
2023-04-01T19:57:17.814Z,8.80
2023-04-01T20:00:06.690Z,8.80
2023-04-01T20:03:12.985Z,8.80
2023-04-01T20:05:42.397Z,8.80
2023-04-01T20:08:44.409Z,8.80
2023-04-01T20:11:31.356Z,8.70
2023-04-01T20:14:20.983Z,8.70
2023-04-01T20:17:16.405Z,8.70
2023-04-01T20:20:15.631Z,8.70
2023-04-01T20:23:06.519Z,8.70
2023-04-01T20:25:47.261Z,8.80
2023-04-01T20:28:42.094Z,8.80
2023-04-01T20:31:50.572Z,8.70
2023-04-01T20:34:28.055Z,8.80
2023-04-01T20:37:02.407Z,8.70
2023-04-01T20:39:45.047Z,8.80
2023-04-01T20:42:46.441Z,8.80
2023-04-01T20:45:27.101Z,8.80
2023-04-01T20:48:24.542Z,8.80
2023-04-01T20:50:58.453Z,8.80
2023-04-01T20:53:29.085Z,8.80
2023-04-01T20:56:07.901Z,8.80
2023-04-01T20:58:53.609Z,8.80
2023-04-01T21:01:32.574Z,8.80
2023-04-01T21:04:23.923Z,8.70
2023-04-01T21:07:09.156Z,8.70
2023-04-01T21:09:50.711Z,8.70
2023-04-01T21:12:28.594Z,8.70
2023-04-01T21:15:08.488Z,8.70
2023-04-01T21:17:56.718Z,8.70
2023-04-01T21:20:41.162Z,8.80
2023-04-01T21:23:24.473Z,8.70
2023-04-01T21:26:21.764Z,8.60
2023-04-01T21:29:31.486Z,8.60
2023-04-01T21:32:14.763Z,8.60
2023-04-01T21:34:57.338Z,8.60
2023-04-01T21:37:43.457Z,8.60
2023-04-01T21:40:32.319Z,8.50
2023-04-01T21:43:37.614Z,8.50
2023-04-01T21:46:33.994Z,8.50
2023-04-01T21:49:19.638Z,8.50
2023-04-01T21:52:05.217Z,8.50
2023-04-01T21:54:44.131Z,8.50
2023-04-01T21:57:49.274Z,8.50
2023-04-01T22:00:46.643Z,8.50
2023-04-01T22:03:27.395Z,8.50
2023-04-01T22:06:11.271Z,8.40
2023-04-01T22:09:08.071Z,8.50
2023-04-01T22:11:45.723Z,8.40
2023-04-01T22:14:57.986Z,8.40
2023-04-01T22:17:35.802Z,8.40
2023-04-01T22:20:35.911Z,8.40
2023-04-01T22:23:25.770Z,8.40
2023-04-01T22:26:03.612Z,8.20
2023-04-01T22:28:37.638Z,8.30
2023-04-01T22:31:07.946Z,8.20
2023-04-01T22:33:47.112Z,8.20
2023-04-01T22:36:33.637Z,8.20
2023-04-01T22:39:22.850Z,8.20
2023-04-01T22:41:59.149Z,8.20
2023-04-01T22:44:48.473Z,8.20
2023-04-01T22:47:22.452Z,8.20
2023-04-01T22:50:12.059Z,8.20
2023-04-01T22:52:43.666Z,8.20
2023-04-01T22:55:34.817Z,8.20
2023-04-01T22:58:29.883Z,8.20
2023-04-01T23:01:02.753Z,8.20
2023-04-01T23:03:33.465Z,8.30
2023-04-01T23:06:03.056Z,8.30
2023-04-01T23:08:55.081Z,8.30
2023-04-01T23:11:26.777Z,8.30
2023-04-01T23:14:19.478Z,8.30
2023-04-01T23:16:58.050Z,8.30
2023-04-01T23:19:34.081Z,8.30
2023-04-01T23:22:51.454Z,8.30
2023-04-01T23:25:22.059Z,8.30
2023-04-01T23:28:21.851Z,8.20
2023-04-01T23:30:51.027Z,8.20
2023-04-01T23:33:21.912Z,8.30
2023-04-01T23:35:49.645Z,8.30
2023-04-01T23:38:18.207Z,8.90
2023-04-01T23:40:50.749Z,8.30
2023-04-01T23:43:32.156Z,8.30
2023-04-01T23:46:05.055Z,8.20
2023-04-01T23:48:38.956Z,8.20
2023-04-01T23:51:17.513Z,8.20
2023-04-01T23:53:47.264Z,8.20
2023-04-01T23:56:19.091Z,8.30
2023-04-01T23:58:59.409Z,8.20
